sensor_id;sensor_type;location;lat;lon;timestamp;P1;durP1;ratioP1;P2;durP2;ratioP2
11970;SDS011;6045;42.682;23.294;2022-07-10T00:00:05;11.40;;;10.20;;
11970;SDS011;6045;42.682;23.294;2022-07-10T00:02:34;13.10;;;11.80;;
11970;SDS011;6045;42.682;23.294;2022-07-10T00:05:02;11.38;;;10.30;;
11970;SDS011;6045;42.682;23.294;2022-07-10T00:07:29;11.90;;;10.80;;
11970;SDS011;6045;42.682;23.294;2022-07-10T00:09:56;11.65;;;10.55;;
11970;SDS011;6045;42.682;23.294;2022-07-10T00:12:23;12.27;;;11.10;;
11970;SDS011;6045;42.682;23.294;2022-07-10T00:14:50;12.13;;;10.93;;
11970;SDS011;6045;42.682;23.294;2022-07-10T00:17:17;12.35;;;11.05;;
11970;SDS011;6045;42.682;23.294;2022-07-10T00:19:43;12.43;;;11.23;;
11970;SDS011;6045;42.682;23.294;2022-07-10T00:22:12;12.93;;;11.63;;
11970;SDS011;6045;42.682;23.294;2022-07-10T00:24:39;12.02;;;10.93;;
11970;SDS011;6045;42.682;23.294;2022-07-10T00:27:06;13.02;;;11.73;;
11970;SDS011;6045;42.682;23.294;2022-07-10T00:29:32;12.18;;;10.98;;
11970;SDS011;6045;42.682;23.294;2022-07-10T00:31:59;12.55;;;11.32;;
11970;SDS011;6045;42.682;23.294;2022-07-10T00:34:26;14.32;;;11.48;;
11970;SDS011;6045;42.682;23.294;2022-07-10T00:36:53;13.25;;;11.95;;
11970;SDS011;6045;42.682;23.294;2022-07-10T00:39:21;12.75;;;11.55;;
11970;SDS011;6045;42.682;23.294;2022-07-10T00:41:48;12.27;;;10.98;;
11970;SDS011;6045;42.682;23.294;2022-07-10T00:44:14;12.93;;;11.73;;
11970;SDS011;6045;42.682;23.294;2022-07-10T00:46:41;12.73;;;11.57;;
11970;SDS011;6045;42.682;23.294;2022-07-10T00:49:08;12.68;;;11.27;;
11970;SDS011;6045;42.682;23.294;2022-07-10T00:51:36;12.90;;;11.50;;
11970;SDS011;6045;42.682;23.294;2022-07-10T00:54:03;12.93;;;11.75;;
11970;SDS011;6045;42.682;23.294;2022-07-10T00:56:33;12.60;;;11.30;;
11970;SDS011;6045;42.682;23.294;2022-07-10T00:59:00;12.93;;;11.55;;
11970;SDS011;6045;42.682;23.294;2022-07-10T01:01:27;13.30;;;11.85;;
11970;SDS011;6045;42.682;23.294;2022-07-10T01:03:54;13.77;;;12.45;;
11970;SDS011;6045;42.682;23.294;2022-07-10T01:06:21;12.88;;;11.65;;
11970;SDS011;6045;42.682;23.294;2022-07-10T01:08:47;13.65;;;12.25;;
11970;SDS011;6045;42.682;23.294;2022-07-10T01:11:14;12.63;;;11.43;;
11970;SDS011;6045;42.682;23.294;2022-07-10T01:13:43;12.70;;;11.40;;
11970;SDS011;6045;42.682;23.294;2022-07-10T01:16:10;11.82;;;10.73;;
11970;SDS011;6045;42.682;23.294;2022-07-10T01:18:37;12.50;;;11.30;;
11970;SDS011;6045;42.682;23.294;2022-07-10T01:21:05;12.13;;;10.93;;
11970;SDS011;6045;42.682;23.294;2022-07-10T01:23:32;12.98;;;11.63;;
11970;SDS011;6045;42.682;23.294;2022-07-10T01:25:59;13.32;;;12.02;;
11970;SDS011;6045;42.682;23.294;2022-07-10T01:28:27;13.75;;;11.23;;
11970;SDS011;6045;42.682;23.294;2022-07-10T01:30:56;12.48;;;11.18;;
11970;SDS011;6045;42.682;23.294;2022-07-10T01:33:23;13.13;;;11.82;;
11970;SDS011;6045;42.682;23.294;2022-07-10T01:35:49;13.02;;;11.75;;
11970;SDS011;6045;42.682;23.294;2022-07-10T01:38:18;12.90;;;11.70;;
11970;SDS011;6045;42.682;23.294;2022-07-10T01:40:44;13.40;;;11.70;;
11970;SDS011;6045;42.682;23.294;2022-07-10T01:43:11;11.93;;;10.83;;
11970;SDS011;6045;42.682;23.294;2022-07-10T01:45:38;11.68;;;10.48;;
11970;SDS011;6045;42.682;23.294;2022-07-10T01:48:05;12.07;;;10.88;;
11970;SDS011;6045;42.682;23.294;2022-07-10T01:50:32;12.32;;;11.13;;
11970;SDS011;6045;42.682;23.294;2022-07-10T01:52:59;12.07;;;10.88;;
11970;SDS011;6045;42.682;23.294;2022-07-10T01:55:27;11.98;;;10.63;;
11970;SDS011;6045;42.682;23.294;2022-07-10T01:57:54;11.73;;;10.55;;
11970;SDS011;6045;42.682;23.294;2022-07-10T02:00:24;11.10;;;10.07;;
11970;SDS011;6045;42.682;23.294;2022-07-10T02:02:51;12.25;;;11.05;;
11970;SDS011;6045;42.682;23.294;2022-07-10T02:05:31;11.40;;;10.30;;
11970;SDS011;6045;42.682;23.294;2022-07-10T02:07:58;11.85;;;10.60;;
11970;SDS011;6045;42.682;23.294;2022-07-10T02:10:25;11.93;;;10.73;;
11970;SDS011;6045;42.682;23.294;2022-07-10T02:12:53;11.80;;;10.52;;
11970;SDS011;6045;42.682;23.294;2022-07-10T02:15:21;11.57;;;10.48;;
11970;SDS011;6045;42.682;23.294;2022-07-10T02:17:48;11.63;;;10.43;;
11970;SDS011;6045;42.682;23.294;2022-07-10T02:20:15;11.93;;;10.75;;
11970;SDS011;6045;42.682;23.294;2022-07-10T02:22:42;11.35;;;10.25;;
11970;SDS011;6045;42.682;23.294;2022-07-10T02:25:08;11.57;;;10.48;;
11970;SDS011;6045;42.682;23.294;2022-07-10T02:27:37;11.80;;;10.68;;
11970;SDS011;6045;42.682;23.294;2022-07-10T02:30:06;13.18;;;11.88;;
11970;SDS011;6045;42.682;23.294;2022-07-10T02:32:33;13.20;;;11.80;;
11970;SDS011;6045;42.682;23.294;2022-07-10T02:35:00;13.13;;;11.25;;
11970;SDS011;6045;42.682;23.294;2022-07-10T02:37:26;12.27;;;10.93;;
11970;SDS011;6045;42.682;23.294;2022-07-10T02:39:53;12.30;;;11.20;;
11970;SDS011;6045;42.682;23.294;2022-07-10T02:42:20;12.80;;;11.50;;
11970;SDS011;6045;42.682;23.294;2022-07-10T02:44:47;13.43;;;11.23;;
11970;SDS011;6045;42.682;23.294;2022-07-10T02:47:15;12.10;;;11.00;;
11970;SDS011;6045;42.682;23.294;2022-07-10T02:49:42;11.70;;;10.50;;
11970;SDS011;6045;42.682;23.294;2022-07-10T02:52:09;11.63;;;10.53;;
11970;SDS011;6045;42.682;23.294;2022-07-10T02:54:36;10.65;;;9.65;;
11970;SDS011;6045;42.682;23.294;2022-07-10T02:57:04;11.95;;;10.75;;
11970;SDS011;6045;42.682;23.294;2022-07-10T02:59:31;11.20;;;10.10;;
11970;SDS011;6045;42.682;23.294;2022-07-10T03:01:58;11.40;;;10.23;;
11970;SDS011;6045;42.682;23.294;2022-07-10T03:04:27;10.95;;;9.85;;
11970;SDS011;6045;42.682;23.294;2022-07-10T03:06:54;10.90;;;9.80;;
11970;SDS011;6045;42.682;23.294;2022-07-10T03:09:21;11.00;;;9.53;;
11970;SDS011;6045;42.682;23.294;2022-07-10T03:11:47;10.83;;;9.73;;
11970;SDS011;6045;42.682;23.294;2022-07-10T03:14:14;11.10;;;9.80;;
11970;SDS011;6045;42.682;23.294;2022-07-10T03:16:43;11.32;;;10.07;;
11970;SDS011;6045;42.682;23.294;2022-07-10T03:19:10;10.20;;;9.15;;
11970;SDS011;6045;42.682;23.294;2022-07-10T03:21:40;11.55;;;9.73;;
11970;SDS011;6045;42.682;23.294;2022-07-10T03:24:07;11.93;;;10.73;;
11970;SDS011;6045;42.682;23.294;2022-07-10T03:26:33;11.67;;;10.47;;
11970;SDS011;6045;42.682;23.294;2022-07-10T03:29:00;10.68;;;9.63;;
11970;SDS011;6045;42.682;23.294;2022-07-10T03:31:27;10.55;;;9.55;;
11970;SDS011;6045;42.682;23.294;2022-07-10T03:33:54;12.10;;;10.68;;
11970;SDS011;6045;42.682;23.294;2022-07-10T03:36:21;10.90;;;9.82;;
11970;SDS011;6045;42.682;23.294;2022-07-10T03:38:49;11.95;;;10.75;;
11970;SDS011;6045;42.682;23.294;2022-07-10T03:41:16;11.17;;;10.17;;
11970;SDS011;6045;42.682;23.294;2022-07-10T03:43:43;11.18;;;10.07;;
11970;SDS011;6045;42.682;23.294;2022-07-10T03:46:09;11.37;;;10.27;;
11970;SDS011;6045;42.682;23.294;2022-07-10T03:48:36;11.38;;;10.27;;
11970;SDS011;6045;42.682;23.294;2022-07-10T03:51:03;13.38;;;10.15;;
11970;SDS011;6045;42.682;23.294;2022-07-10T03:53:30;13.55;;;12.15;;
11970;SDS011;6045;42.682;23.294;2022-07-10T03:55:58;12.68;;;11.27;;
11970;SDS011;6045;42.682;23.294;2022-07-10T03:58:25;11.43;;;10.32;;
11970;SDS011;6045;42.682;23.294;2022-07-10T04:00:51;11.02;;;9.85;;
11970;SDS011;6045;42.682;23.294;2022-07-10T04:03:18;12.45;;;9.73;;
11970;SDS011;6045;42.682;23.294;2022-07-10T04:05:45;11.23;;;10.13;;
11970;SDS011;6045;42.682;23.294;2022-07-10T04:14:06;11.63;;;10.43;;
11970;SDS011;6045;42.682;23.294;2022-07-10T04:16:56;9.98;;;9.00;;
11970;SDS011;6045;42.682;23.294;2022-07-10T04:19:26;10.82;;;9.77;;
11970;SDS011;6045;42.682;23.294;2022-07-10T04:21:55;10.15;;;9.15;;
11970;SDS011;6045;42.682;23.294;2022-07-10T04:24:31;10.88;;;9.77;;
11970;SDS011;6045;42.682;23.294;2022-07-10T04:26:59;9.38;;;8.38;;
11970;SDS011;6045;42.682;23.294;2022-07-10T04:29:26;9.68;;;8.77;;
11970;SDS011;6045;42.682;23.294;2022-07-10T04:31:53;10.02;;;9.13;;
11970;SDS011;6045;42.682;23.294;2022-07-10T04:34:19;10.00;;;9.00;;
11970;SDS011;6045;42.682;23.294;2022-07-10T04:36:46;9.32;;;8.30;;
11970;SDS011;6045;42.682;23.294;2022-07-10T04:39:13;10.85;;;9.75;;
11970;SDS011;6045;42.682;23.294;2022-07-10T04:41:40;9.05;;;8.18;;
11970;SDS011;6045;42.682;23.294;2022-07-10T04:44:08;9.32;;;8.52;;
11970;SDS011;6045;42.682;23.294;2022-07-10T04:46:35;8.80;;;7.88;;
11970;SDS011;6045;42.682;23.294;2022-07-10T04:49:02;8.27;;;7.47;;
11970;SDS011;6045;42.682;23.294;2022-07-10T04:51:29;8.15;;;7.40;;
11970;SDS011;6045;42.682;23.294;2022-07-10T04:53:56;7.95;;;7.15;;
11970;SDS011;6045;42.682;23.294;2022-07-10T04:56:22;8.25;;;7.50;;
11970;SDS011;6045;42.682;23.294;2022-07-10T04:58:49;8.68;;;7.75;;
11970;SDS011;6045;42.682;23.294;2022-07-10T05:01:17;8.50;;;7.68;;
11970;SDS011;6045;42.682;23.294;2022-07-10T05:03:44;7.82;;;7.22;;
11970;SDS011;6045;42.682;23.294;2022-07-10T05:06:18;7.63;;;7.03;;
11970;SDS011;6045;42.682;23.294;2022-07-10T05:08:45;7.88;;;7.00;;
11970;SDS011;6045;42.682;23.294;2022-07-10T05:11:12;8.18;;;7.47;;
11970;SDS011;6045;42.682;23.294;2022-07-10T05:13:39;8.57;;;7.55;;
11970;SDS011;6045;42.682;23.294;2022-07-10T05:16:09;9.32;;;8.07;;
11970;SDS011;6045;42.682;23.294;2022-07-10T05:18:39;7.93;;;7.18;;
11970;SDS011;6045;42.682;23.294;2022-07-10T05:21:06;8.30;;;7.50;;
11970;SDS011;6045;42.682;23.294;2022-07-10T05:23:39;8.35;;;7.55;;
11970;SDS011;6045;42.682;23.294;2022-07-10T05:26:08;8.57;;;7.07;;
11970;SDS011;6045;42.682;23.294;2022-07-10T05:28:34;7.55;;;6.82;;
11970;SDS011;6045;42.682;23.294;2022-07-10T05:31:01;8.40;;;7.60;;
11970;SDS011;6045;42.682;23.294;2022-07-10T05:33:28;7.88;;;6.97;;
11970;SDS011;6045;42.682;23.294;2022-07-10T05:35:56;7.78;;;7.07;;
11970;SDS011;6045;42.682;23.294;2022-07-10T05:38:23;8.07;;;7.28;;
11970;SDS011;6045;42.682;23.294;2022-07-10T05:40:50;8.77;;;7.88;;
11970;SDS011;6045;42.682;23.294;2022-07-10T05:43:18;8.10;;;7.35;;
11970;SDS011;6045;42.682;23.294;2022-07-10T05:45:45;8.27;;;7.57;;
11970;SDS011;6045;42.682;23.294;2022-07-10T05:48:12;7.97;;;6.78;;
11970;SDS011;6045;42.682;23.294;2022-07-10T05:50:39;6.95;;;6.35;;
11970;SDS011;6045;42.682;23.294;2022-07-10T05:53:07;6.93;;;6.40;;
11970;SDS011;6045;42.682;23.294;2022-07-10T05:55:33;6.90;;;6.30;;
11970;SDS011;6045;42.682;23.294;2022-07-10T05:58:00;6.97;;;6.15;;
11970;SDS011;6045;42.682;23.294;2022-07-10T06:00:27;6.30;;;5.70;;
11970;SDS011;6045;42.682;23.294;2022-07-10T06:02:54;6.40;;;5.80;;
11970;SDS011;6045;42.682;23.294;2022-07-10T06:05:21;6.18;;;5.68;;
11970;SDS011;6045;42.682;23.294;2022-07-10T06:07:48;5.95;;;5.55;;
11970;SDS011;6045;42.682;23.294;2022-07-10T06:10:19;5.65;;;5.25;;
11970;SDS011;6045;42.682;23.294;2022-07-10T06:12:48;6.20;;;5.68;;
11970;SDS011;6045;42.682;23.294;2022-07-10T06:15:14;5.93;;;5.43;;
11970;SDS011;6045;42.682;23.294;2022-07-10T06:17:41;6.20;;;5.70;;
11970;SDS011;6045;42.682;23.294;2022-07-10T06:20:09;6.15;;;5.55;;
11970;SDS011;6045;42.682;23.294;2022-07-10T06:22:36;8.88;;;8.05;;
11970;SDS011;6045;42.682;23.294;2022-07-10T06:25:05;42.78;;;31.92;;
11970;SDS011;6045;42.682;23.294;2022-07-10T06:27:35;7.90;;;7.10;;
11970;SDS011;6045;42.682;23.294;2022-07-10T06:30:02;6.40;;;5.20;;
11970;SDS011;6045;42.682;23.294;2022-07-10T06:32:31;5.82;;;5.32;;
11970;SDS011;6045;42.682;23.294;2022-07-10T06:35:01;6.03;;;5.53;;
11970;SDS011;6045;42.682;23.294;2022-07-10T06:37:29;5.45;;;5.05;;
11970;SDS011;6045;42.682;23.294;2022-07-10T06:39:57;5.22;;;4.70;;
11970;SDS011;6045;42.682;23.294;2022-07-10T06:42:23;8.48;;;6.43;;
11970;SDS011;6045;42.682;23.294;2022-07-10T06:44:51;13.15;;;11.68;;
11970;SDS011;6045;42.682;23.294;2022-07-10T06:47:18;6.38;;;5.00;;
11970;SDS011;6045;42.682;23.294;2022-07-10T06:50:03;5.90;;;4.28;;
11970;SDS011;6045;42.682;23.294;2022-07-10T06:52:31;5.95;;;4.65;;
11970;SDS011;6045;42.682;23.294;2022-07-10T06:54:59;5.07;;;4.55;;
11970;SDS011;6045;42.682;23.294;2022-07-10T06:57:26;4.90;;;4.50;;
11970;SDS011;6045;42.682;23.294;2022-07-10T06:59:54;5.18;;;4.78;;
11970;SDS011;6045;42.682;23.294;2022-07-10T07:02:21;4.57;;;4.18;;
11970;SDS011;6045;42.682;23.294;2022-07-10T07:04:48;4.88;;;4.43;;
11970;SDS011;6045;42.682;23.294;2022-07-10T07:07:14;4.78;;;4.32;;
11970;SDS011;6045;42.682;23.294;2022-07-10T07:09:41;4.80;;;4.40;;
11970;SDS011;6045;42.682;23.294;2022-07-10T07:12:08;5.28;;;4.78;;
11970;SDS011;6045;42.682;23.294;2022-07-10T07:14:35;4.85;;;4.45;;
11970;SDS011;6045;42.682;23.294;2022-07-10T07:17:04;5.82;;;4.50;;
11970;SDS011;6045;42.682;23.294;2022-07-10T07:19:34;4.50;;;4.10;;
11970;SDS011;6045;42.682;23.294;2022-07-10T07:22:15;4.15;;;3.78;;
11970;SDS011;6045;42.682;23.294;2022-07-10T07:24:59;5.50;;;4.07;;
11970;SDS011;6045;42.682;23.294;2022-07-10T07:27:26;4.30;;;3.85;;
11970;SDS011;6045;42.682;23.294;2022-07-10T07:29:53;4.03;;;3.72;;
11970;SDS011;6045;42.682;23.294;2022-07-10T07:32:21;3.88;;;3.58;;
11970;SDS011;6045;42.682;23.294;2022-07-10T07:34:48;4.75;;;4.30;;
11970;SDS011;6045;42.682;23.294;2022-07-10T07:37:14;4.25;;;3.90;;
11970;SDS011;6045;42.682;23.294;2022-07-10T07:39:41;4.22;;;3.83;;
11970;SDS011;6045;42.682;23.294;2022-07-10T07:42:08;4.15;;;3.83;;
11970;SDS011;6045;42.682;23.294;2022-07-10T07:44:34;4.13;;;3.67;;
11970;SDS011;6045;42.682;23.294;2022-07-10T07:47:01;4.22;;;3.83;;
11970;SDS011;6045;42.682;23.294;2022-07-10T07:49:32;5.07;;;3.70;;
11970;SDS011;6045;42.682;23.294;2022-07-10T07:51:59;3.88;;;3.58;;
11970;SDS011;6045;42.682;23.294;2022-07-10T07:54:26;3.90;;;3.60;;
11970;SDS011;6045;42.682;23.294;2022-07-10T07:56:53;4.28;;;3.88;;
11970;SDS011;6045;42.682;23.294;2022-07-10T07:59:20;3.70;;;3.40;;
11970;SDS011;6045;42.682;23.294;2022-07-10T08:01:55;4.75;;;3.70;;
11970;SDS011;6045;42.682;23.294;2022-07-10T08:04:22;4.15;;;3.85;;
11970;SDS011;6045;42.682;23.294;2022-07-10T08:06:50;4.00;;;3.70;;
11970;SDS011;6045;42.682;23.294;2022-07-10T08:09:17;3.28;;;3.03;;
11970;SDS011;6045;42.682;23.294;2022-07-10T08:11:44;3.55;;;2.95;;
11970;SDS011;6045;42.682;23.294;2022-07-10T08:14:14;4.28;;;3.38;;
11970;SDS011;6045;42.682;23.294;2022-07-10T08:16:40;3.40;;;3.10;;
11970;SDS011;6045;42.682;23.294;2022-07-10T08:19:07;5.90;;;4.30;;
11970;SDS011;6045;42.682;23.294;2022-07-10T08:21:34;9.65;;;7.22;;
11970;SDS011;6045;42.682;23.294;2022-07-10T08:24:02;4.50;;;3.95;;
11970;SDS011;6045;42.682;23.294;2022-07-10T08:26:29;4.35;;;3.63;;
11970;SDS011;6045;42.682;23.294;2022-07-10T08:28:56;3.78;;;3.47;;
11970;SDS011;6045;42.682;23.294;2022-07-10T08:31:23;4.00;;;3.70;;
11970;SDS011;6045;42.682;23.294;2022-07-10T08:33:50;3.75;;;3.40;;
11970;SDS011;6045;42.682;23.294;2022-07-10T08:36:17;3.50;;;3.30;;
11970;SDS011;6045;42.682;23.294;2022-07-10T08:38:44;3.70;;;3.40;;
11970;SDS011;6045;42.682;23.294;2022-07-10T08:41:12;4.18;;;3.58;;
11970;SDS011;6045;42.682;23.294;2022-07-10T08:43:40;3.83;;;3.42;;
11970;SDS011;6045;42.682;23.294;2022-07-10T08:46:07;3.88;;;3.58;;
11970;SDS011;6045;42.682;23.294;2022-07-10T08:48:38;4.97;;;3.45;;
11970;SDS011;6045;42.682;23.294;2022-07-10T08:51:08;3.50;;;3.20;;
11970;SDS011;6045;42.682;23.294;2022-07-10T08:53:41;4.35;;;3.20;;
11970;SDS011;6045;42.682;23.294;2022-07-10T08:56:07;3.60;;;3.30;;
11970;SDS011;6045;42.682;23.294;2022-07-10T08:58:37;3.67;;;3.38;;
11970;SDS011;6045;42.682;23.294;2022-07-10T09:01:04;3.72;;;3.42;;
11970;SDS011;6045;42.682;23.294;2022-07-10T09:03:31;3.30;;;3.00;;
11970;SDS011;6045;42.682;23.294;2022-07-10T09:05:58;3.45;;;3.15;;
11970;SDS011;6045;42.682;23.294;2022-07-10T09:08:25;4.45;;;3.20;;
11970;SDS011;6045;42.682;23.294;2022-07-10T09:13:52;3.83;;;3.53;;
11970;SDS011;6045;42.682;23.294;2022-07-10T09:16:23;5.03;;;3.67;;
11970;SDS011;6045;42.682;23.294;2022-07-10T09:18:50;3.63;;;3.38;;
11970;SDS011;6045;42.682;23.294;2022-07-10T09:21:17;5.15;;;3.88;;
11970;SDS011;6045;42.682;23.294;2022-07-10T09:23:44;4.05;;;3.38;;
11970;SDS011;6045;42.682;23.294;2022-07-10T09:26:11;4.25;;;2.80;;
11970;SDS011;6045;42.682;23.294;2022-07-10T09:28:38;4.10;;;3.70;;
11970;SDS011;6045;42.682;23.294;2022-07-10T09:31:06;4.53;;;3.83;;
11970;SDS011;6045;42.682;23.294;2022-07-10T09:33:33;3.20;;;3.00;;
11970;SDS011;6045;42.682;23.294;2022-07-10T09:36:03;3.92;;;3.47;;
11970;SDS011;6045;42.682;23.294;2022-07-10T09:38:31;4.60;;;3.25;;
11970;SDS011;6045;42.682;23.294;2022-07-10T09:41:15;4.60;;;3.20;;
11970;SDS011;6045;42.682;23.294;2022-07-10T09:43:44;3.72;;;3.33;;
11970;SDS011;6045;42.682;23.294;2022-07-10T09:46:12;3.53;;;3.22;;
11970;SDS011;6045;42.682;23.294;2022-07-10T09:48:39;3.88;;;3.10;;
11970;SDS011;6045;42.682;23.294;2022-07-10T09:51:08;3.97;;;3.08;;
11970;SDS011;6045;42.682;23.294;2022-07-10T09:53:36;3.05;;;2.75;;
11970;SDS011;6045;42.682;23.294;2022-07-10T09:56:06;3.08;;;2.88;;
11970;SDS011;6045;42.682;23.294;2022-07-10T09:58:37;4.15;;;3.85;;
11970;SDS011;6045;42.682;23.294;2022-07-10T10:01:06;4.57;;;3.33;;
11970;SDS011;6045;42.682;23.294;2022-07-10T10:03:35;3.88;;;3.10;;
11970;SDS011;6045;42.682;23.294;2022-07-10T10:06:05;2.90;;;2.70;;
11970;SDS011;6045;42.682;23.294;2022-07-10T10:08:37;3.30;;;3.00;;
11970;SDS011;6045;42.682;23.294;2022-07-10T10:11:14;2.78;;;2.58;;
11970;SDS011;6045;42.682;23.294;2022-07-10T10:13:45;3.75;;;3.40;;
11970;SDS011;6045;42.682;23.294;2022-07-10T10:16:13;4.57;;;4.15;;
11970;SDS011;6045;42.682;23.294;2022-07-10T10:18:41;3.50;;;3.20;;
11970;SDS011;6045;42.682;23.294;2022-07-10T10:21:23;3.15;;;2.90;;
11970;SDS011;6045;42.682;23.294;2022-07-10T10:23:51;3.00;;;2.60;;
11970;SDS011;6045;42.682;23.294;2022-07-10T10:26:20;2.65;;;2.42;;
11970;SDS011;6045;42.682;23.294;2022-07-10T10:28:47;3.53;;;2.83;;
11970;SDS011;6045;42.682;23.294;2022-07-10T10:31:14;4.20;;;3.80;;
11970;SDS011;6045;42.682;23.294;2022-07-10T10:33:48;2.95;;;2.75;;
11970;SDS011;6045;42.682;23.294;2022-07-10T10:39:16;3.10;;;2.80;;
11970;SDS011;6045;42.682;23.294;2022-07-10T10:41:55;3.83;;;3.45;;
11970;SDS011;6045;42.682;23.294;2022-07-10T10:44:32;2.78;;;2.50;;
11970;SDS011;6045;42.682;23.294;2022-07-10T10:47:04;3.00;;;2.80;;
11970;SDS011;6045;42.682;23.294;2022-07-10T10:52:16;2.83;;;2.63;;
11970;SDS011;6045;42.682;23.294;2022-07-10T10:54:59;3.33;;;2.75;;
11970;SDS011;6045;42.682;23.294;2022-07-10T10:57:38;2.90;;;2.63;;
11970;SDS011;6045;42.682;23.294;2022-07-10T11:00:11;3.15;;;2.92;;
11970;SDS011;6045;42.682;23.294;2022-07-10T11:02:41;4.13;;;3.72;;
11970;SDS011;6045;42.682;23.294;2022-07-10T11:08:09;2.83;;;2.63;;
11970;SDS011;6045;42.682;23.294;2022-07-10T11:10:37;2.80;;;2.60;;
11970;SDS011;6045;42.682;23.294;2022-07-10T11:13:05;2.70;;;2.47;;
11970;SDS011;6045;42.682;23.294;2022-07-10T11:15:33;2.65;;;2.45;;
11970;SDS011;6045;42.682;23.294;2022-07-10T11:18:05;3.70;;;2.80;;
11970;SDS011;6045;42.682;23.294;2022-07-10T11:20:33;2.65;;;2.50;;
11970;SDS011;6045;42.682;23.294;2022-07-10T11:23:08;2.85;;;2.65;;
11970;SDS011;6045;42.682;23.294;2022-07-10T11:25:48;3.13;;;2.83;;
11970;SDS011;6045;42.682;23.294;2022-07-10T11:28:28;3.90;;;2.65;;
11970;SDS011;6045;42.682;23.294;2022-07-10T11:31:04;2.85;;;2.65;;
11970;SDS011;6045;42.682;23.294;2022-07-10T11:33:36;2.85;;;2.65;;
11970;SDS011;6045;42.682;23.294;2022-07-10T11:36:09;2.70;;;2.50;;
11970;SDS011;6045;42.682;23.294;2022-07-10T11:38:40;2.58;;;2.40;;
11970;SDS011;6045;42.682;23.294;2022-07-10T11:41:16;3.10;;;2.80;;
11970;SDS011;6045;42.682;23.294;2022-07-10T11:43:48;2.60;;;2.40;;
11970;SDS011;6045;42.682;23.294;2022-07-10T11:46:16;3.75;;;2.40;;
11970;SDS011;6045;42.682;23.294;2022-07-10T11:48:44;3.30;;;2.45;;
11970;SDS011;6045;42.682;23.294;2022-07-10T11:53:58;2.97;;;2.75;;
11970;SDS011;6045;42.682;23.294;2022-07-10T11:56:29;2.90;;;2.60;;
11970;SDS011;6045;42.682;23.294;2022-07-10T11:58:58;4.40;;;4.05;;
11970;SDS011;6045;42.682;23.294;2022-07-10T12:01:26;7.35;;;5.45;;
11970;SDS011;6045;42.682;23.294;2022-07-10T12:03:58;3.97;;;2.95;;
11970;SDS011;6045;42.682;23.294;2022-07-10T12:06:26;4.85;;;4.30;;
11970;SDS011;6045;42.682;23.294;2022-07-10T12:08:53;12.32;;;10.68;;
11970;SDS011;6045;42.682;23.294;2022-07-10T12:11:22;7.38;;;6.65;;
11970;SDS011;6045;42.682;23.294;2022-07-10T12:13:50;5.78;;;4.47;;
11970;SDS011;6045;42.682;23.294;2022-07-10T12:16:19;6.53;;;5.93;;
11970;SDS011;6045;42.682;23.294;2022-07-10T12:18:48;3.28;;;2.97;;
11970;SDS011;6045;42.682;23.294;2022-07-10T12:21:15;3.25;;;2.95;;
11970;SDS011;6045;42.682;23.294;2022-07-10T12:23:45;2.97;;;2.33;;
11970;SDS011;6045;42.682;23.294;2022-07-10T12:26:13;2.20;;;2.10;;
11970;SDS011;6045;42.682;23.294;2022-07-10T12:31:29;2.50;;;2.35;;
11970;SDS011;6045;42.682;23.294;2022-07-10T12:34:01;2.67;;;2.40;;
11970;SDS011;6045;42.682;23.294;2022-07-10T12:39:19;2.30;;;2.10;;
11970;SDS011;6045;42.682;23.294;2022-07-10T12:42:00;2.35;;;2.15;;
11970;SDS011;6045;42.682;23.294;2022-07-10T12:44:31;2.40;;;2.20;;
11970;SDS011;6045;42.682;23.294;2022-07-10T12:47:02;2.28;;;1.77;;
11970;SDS011;6045;42.682;23.294;2022-07-10T12:49:47;2.35;;;2.15;;
11970;SDS011;6045;42.682;23.294;2022-07-10T12:52:18;1.95;;;1.83;;
11970;SDS011;6045;42.682;23.294;2022-07-10T12:54:46;2.03;;;1.67;;
11970;SDS011;6045;42.682;23.294;2022-07-10T12:57:13;1.90;;;1.70;;
11970;SDS011;6045;42.682;23.294;2022-07-10T12:59:41;3.28;;;2.03;;
11970;SDS011;6045;42.682;23.294;2022-07-10T13:02:15;2.08;;;1.73;;
11970;SDS011;6045;42.682;23.294;2022-07-10T13:04:51;1.83;;;1.73;;
11970;SDS011;6045;42.682;23.294;2022-07-10T13:07:18;9.25;;;8.13;;
11970;SDS011;6045;42.682;23.294;2022-07-10T13:09:46;5.80;;;3.42;;
11970;SDS011;6045;42.682;23.294;2022-07-10T13:12:21;17.20;;;12.75;;
11970;SDS011;6045;42.682;23.294;2022-07-10T13:14:49;9.52;;;6.80;;
11970;SDS011;6045;42.682;23.294;2022-07-10T13:17:16;2.90;;;1.88;;
11970;SDS011;6045;42.682;23.294;2022-07-10T13:19:43;2.67;;;1.92;;
11970;SDS011;6045;42.682;23.294;2022-07-10T13:22:10;2.15;;;1.70;;
11970;SDS011;6045;42.682;23.294;2022-07-10T13:24:36;2.17;;;1.98;;
11970;SDS011;6045;42.682;23.294;2022-07-10T13:27:03;2.95;;;1.50;;
11970;SDS011;6045;42.682;23.294;2022-07-10T13:29:32;2.25;;;1.77;;
11970;SDS011;6045;42.682;23.294;2022-07-10T13:32:00;3.88;;;2.53;;
11970;SDS011;6045;42.682;23.294;2022-07-10T13:34:27;7.03;;;6.28;;
11970;SDS011;6045;42.682;23.294;2022-07-10T13:36:54;2.65;;;2.42;;
11970;SDS011;6045;42.682;23.294;2022-07-10T13:39:22;7.78;;;5.47;;
11970;SDS011;6045;42.682;23.294;2022-07-10T13:41:49;5.18;;;4.40;;
11970;SDS011;6045;42.682;23.294;2022-07-10T13:44:17;2.45;;;2.15;;
11970;SDS011;6045;42.682;23.294;2022-07-10T13:46:44;2.80;;;1.83;;
11970;SDS011;6045;42.682;23.294;2022-07-10T13:49:12;1.63;;;1.52;;
11970;SDS011;6045;42.682;23.294;2022-07-10T13:51:39;3.33;;;2.90;;
11970;SDS011;6045;42.682;23.294;2022-07-10T13:54:06;11.52;;;9.20;;
11970;SDS011;6045;42.682;23.294;2022-07-10T13:56:33;5.10;;;3.97;;
11970;SDS011;6045;42.682;23.294;2022-07-10T13:59:00;2.50;;;2.00;;
11970;SDS011;6045;42.682;23.294;2022-07-10T14:01:26;2.67;;;1.60;;
11970;SDS011;6045;42.682;23.294;2022-07-10T14:03:53;2.30;;;1.60;;
11970;SDS011;6045;42.682;23.294;2022-07-10T14:06:21;1.35;;;1.25;;
11970;SDS011;6045;42.682;23.294;2022-07-10T14:08:48;2.13;;;1.50;;
11970;SDS011;6045;42.682;23.294;2022-07-10T14:11:15;2.03;;;1.60;;
11970;SDS011;6045;42.682;23.294;2022-07-10T14:13:43;2.45;;;1.80;;
11970;SDS011;6045;42.682;23.294;2022-07-10T14:16:10;2.47;;;1.48;;
11970;SDS011;6045;42.682;23.294;2022-07-10T14:18:45;4.13;;;1.90;;
11970;SDS011;6045;42.682;23.294;2022-07-10T14:21:12;3.58;;;2.85;;
11970;SDS011;6045;42.682;23.294;2022-07-10T14:23:41;8.38;;;5.93;;
11970;SDS011;6045;42.682;23.294;2022-07-10T14:26:09;3.85;;;2.40;;
11970;SDS011;6045;42.682;23.294;2022-07-10T14:28:36;1.90;;;1.70;;
11970;SDS011;6045;42.682;23.294;2022-07-10T14:31:04;2.47;;;1.40;;
11970;SDS011;6045;42.682;23.294;2022-07-10T14:33:32;2.42;;;1.63;;
11970;SDS011;6045;42.682;23.294;2022-07-10T14:36:00;2.10;;;1.60;;
11970;SDS011;6045;42.682;23.294;2022-07-10T14:38:27;1.90;;;1.63;;
11970;SDS011;6045;42.682;23.294;2022-07-10T14:40:59;1.75;;;1.65;;
11970;SDS011;6045;42.682;23.294;2022-07-10T14:43:26;1.45;;;1.30;;
11970;SDS011;6045;42.682;23.294;2022-07-10T14:45:56;2.92;;;1.70;;
11970;SDS011;6045;42.682;23.294;2022-07-10T14:48:23;1.75;;;1.60;;
11970;SDS011;6045;42.682;23.294;2022-07-10T14:50:50;1.90;;;1.70;;
11970;SDS011;6045;42.682;23.294;2022-07-10T14:53:22;1.98;;;1.83;;
11970;SDS011;6045;42.682;23.294;2022-07-10T14:55:49;2.00;;;1.90;;
11970;SDS011;6045;42.682;23.294;2022-07-10T14:58:17;1.83;;;1.73;;
11970;SDS011;6045;42.682;23.294;2022-07-10T15:00:44;2.20;;;1.60;;
11970;SDS011;6045;42.682;23.294;2022-07-10T15:03:18;2.38;;;2.17;;
11970;SDS011;6045;42.682;23.294;2022-07-10T15:05:54;2.13;;;1.95;;
11970;SDS011;6045;42.682;23.294;2022-07-10T15:08:22;2.05;;;1.83;;
11970;SDS011;6045;42.682;23.294;2022-07-10T15:10:49;1.75;;;1.40;;
11970;SDS011;6045;42.682;23.294;2022-07-10T15:13:17;1.88;;;1.77;;